Time;durP1;ratioP1;P1;durP2;ratioP2;P2;SDS_P1;SDS_P2;PMS_P1;PMS_P2;Temp;Humidity;BMP_temperature;BMP_pressure;BME280_temperature;BME280_humidity;BME280_pressure;Samples;Min_cycle;Max_cycle;Signal;HPM_P1;HPM_P2
2024/04/15 00:01:30;;;;;;;0.38;0.38;;;19.20;99.40;;;;;;5424320;26;20003;-82
2024/04/15 00:03:55;;;;;;;0.52;0.50;;;19.20;99.40;;;;;;5412577;26;19995;-81
2024/04/15 00:06:21;;;;;;;0.20;0.20;;;19.20;99.30;;;;;;5498472;25;20003;-81
2024/04/15 00:08:46;;;;;;;0.50;0.50;;;19.20;99.10;;;;;;5493340;25;20013;-80
2024/04/15 00:11:12;;;;;;;0.85;0.40;;;19.20;99.40;;;;;;5438204;26;20038;-81
2024/04/15 00:13:38;;;;;;;1.08;0.55;;;19.20;99.90;;;;;;5435100;26;20080;-81
2024/04/15 00:16:08;;;;;;;0.40;0.40;;;19.20;99.90;;;;;;5437735;26;19995;-82
2024/04/15 00:18:34;;;;;;;1.25;0.60;;;19.20;99.80;;;;;;5442925;26;20011;-82
2024/04/15 00:21:00;;;;;;;0.50;0.32;;;19.10;99.40;;;;;;5439425;26;20002;-82
2024/04/15 00:23:26;;;;;;;0.40;0.40;;;19.10;99.40;;;;;;5432243;26;20003;-82
2024/04/15 00:25:57;;;;;;;0.50;0.40;;;19.20;99.50;;;;;;5464425;26;20008;-81
2024/04/15 00:28:23;;;;;;;0.52;0.40;;;19.10;99.50;;;;;;5472890;26;20556;-81
2024/04/15 00:30:49;;;;;;;0.43;0.30;;;19.10;99.50;;;;;;5468390;26;20445;-81
2024/04/15 00:33:15;;;;;;;1.27;0.52;;;19.10;99.40;;;;;;5441730;26;19999;-80
2024/04/15 00:35:44;;;;;;;0.20;0.20;;;19.10;99.40;;;;;;5407320;26;20733;-81
2024/04/15 00:38:09;;;;;;;0.40;0.30;;;19.10;99.50;;;;;;5381132;26;20014;-81
2024/04/15 00:40:35;;;;;;;1.55;0.40;;;19.10;99.50;;;;;;5498620;25;19999;-81
2024/04/15 00:43:01;;;;;;;0.60;0.47;;;19.10;99.30;;;;;;5434602;26;19998;-80
2024/04/15 00:45:36;;;;;;;0.40;0.40;;;19.10;99.20;;;;;;5438759;26;20043;-81
2024/04/15 00:48:03;;;;;;;0.52;0.35;;;19.10;99.40;;;;;;5432430;26;20003;-81
2024/04/15 00:50:30;;;;;;;0.45;0.32;;;19.10;99.20;;;;;;5436406;26;20466;-81
2024/04/15 00:52:56;;;;;;;0.57;0.30;;;19.10;99.40;;;;;;5435033;26;20003;-82
2024/04/15 00:55:21;;;;;;;0.40;0.40;;;19.10;99.40;;;;;;5380091;26;20013;-81
2024/04/15 00:57:47;;;;;;;0.47;0.40;;;19.10;99.40;;;;;;5432355;26;20036;-81
2024/04/15 01:00:13;;;;;;;0.40;0.40;;;19.10;99.70;;;;;;5405406;26;20436;-82
2024/04/15 01:02:39;;;;;;;0.40;0.30;;;19.10;99.70;;;;;;5435439;26;20013;-80
2024/04/15 01:05:05;;;;;;;0.30;0.30;;;19.10;99.70;;;;;;5413220;26;20014;-81
2024/04/15 01:07:31;;;;;;;0.43;0.38;;;19.10;99.60;;;;;;5463029;26;20015;-81
2024/04/15 01:09:56;;;;;;;0.50;0.40;;;19.10;99.90;;;;;;5439468;26;21257;-80
2024/04/15 01:12:22;;;;;;;0.30;0.20;;;19.10;99.80;;;;;;5446254;26;19998;-80
2024/04/15 01:14:48;;;;;;;0.52;0.38;;;19.10;99.50;;;;;;5378417;26;20002;-81
2024/04/15 01:17:13;;;;;;;0.28;0.20;;;19.10;99.70;;;;;;5379949;26;20004;-82
2024/04/15 01:19:39;;;;;;;0.40;0.40;;;19.00;99.90;;;;;;5408228;26;20030;-82
2024/04/15 01:22:04;;;;;;;0.40;0.32;;;19.00;99.80;;;;;;5441185;26;20006;-83
2024/04/15 01:24:30;;;;;;;0.35;0.30;;;19.00;99.60;;;;;;5387474;26;20003;-81
2024/04/15 01:26:55;;;;;;;0.55;0.50;;;19.00;99.60;;;;;;5415983;26;20584;-80
2024/04/15 01:29:21;;;;;;;2.05;0.47;;;19.10;98.60;;;;;;5418074;26;20021;-80
2024/04/15 01:31:46;;;;;;;0.50;0.30;;;19.00;98.60;;;;;;5442588;26;20014;-79
2024/04/15 01:34:12;;;;;;;0.85;0.65;;;19.00;98.40;;;;;;5444501;26;20732;-80
2024/04/15 01:36:38;;;;;;;0.40;0.30;;;19.00;98.40;;;;;;5445215;26;20029;-79
2024/04/15 01:39:03;;;;;;;0.70;0.30;;;19.00;98.50;;;;;;5443868;26;20007;-80
2024/04/15 01:41:29;;;;;;;0.68;0.50;;;19.00;98.50;;;;;;5436460;26;20348;-81
2024/04/15 01:43:54;;;;;;;0.82;0.50;;;19.00;98.80;;;;;;5441574;26;20015;-81
2024/04/15 01:46:20;;;;;;;0.40;0.30;;;19.00;98.40;;;;;;5452288;26;20344;-80
2024/04/15 01:48:45;;;;;;;0.50;0.50;;;19.00;98.50;;;;;;5445472;26;20068;-80
2024/04/15 01:51:11;;;;;;;0.28;0.20;;;19.00;98.70;;;;;;5442857;26;20011;-80
2024/04/15 01:53:37;;;;;;;0.52;0.50;;;19.00;98.60;;;;;;5445240;26;20003;-81
2024/04/15 01:56:03;;;;;;;0.40;0.35;;;19.00;98.70;;;;;;5440201;26;20007;-81
2024/04/15 01:58:29;;;;;;;0.68;0.40;;;19.00;98.90;;;;;;5445717;26;20175;-81
2024/04/15 02:01:04;;;;;;;0.82;0.43;;;19.00;99.10;;;;;;5439812;26;20480;-81
2024/04/15 02:03:30;;;;;;;0.90;0.30;;;19.00;99.10;;;;;;5439822;26;20116;-80
2024/04/15 02:05:56;;;;;;;0.55;0.35;;;19.00;99.00;;;;;;5437612;26;20011;-81
2024/04/15 02:08:21;;;;;;;0.20;0.20;;;19.00;98.70;;;;;;5439126;26;20007;-81
2024/04/15 02:10:47;;;;;;;0.43;0.30;;;19.00;98.50;;;;;;5437370;26;20578;-80
2024/04/15 02:13:12;;;;;;;0.40;0.30;;;19.00;98.60;;;;;;5440984;26;20614;-80
2024/04/15 02:15:38;;;;;;;0.40;0.30;;;19.00;98.60;;;;;;5442650;26;20017;-80
2024/04/15 02:18:04;;;;;;;0.47;0.28;;;19.00;98.50;;;;;;5438127;26;20007;-82
2024/04/15 02:20:29;;;;;;;0.50;0.20;;;18.90;98.60;;;;;;5435959;26;20475;-81
2024/04/15 02:22:55;;;;;;;0.35;0.30;;;18.90;98.50;;;;;;5440843;26;20007;-80
2024/04/15 02:25:21;;;;;;;1.48;0.32;;;19.00;98.30;;;;;;5445641;26;20433;-81
2024/04/15 02:27:47;;;;;;;0.50;0.50;;;18.90;98.40;;;;;;5441922;26;20003;-82
2024/04/15 02:30:13;;;;;;;0.40;0.40;;;19.00;98.30;;;;;;5443183;26;20377;-82
2024/04/15 02:32:39;;;;;;;0.40;0.32;;;19.00;98.30;;;;;;5439176;26;20026;-82
2024/04/15 02:35:05;;;;;;;0.50;0.50;;;18.90;98.20;;;;;;5440322;26;20007;-81
2024/04/15 02:37:30;;;;;;;0.63;0.40;;;19.00;98.10;;;;;;5436961;26;20084;-81
2024/04/15 02:39:56;;;;;;;0.30;0.30;;;19.00;98.10;;;;;;5435876;26;20015;-81
2024/04/15 02:42:21;;;;;;;0.75;0.40;;;18.90;98.00;;;;;;5441731;26;20010;-81
2024/04/15 02:44:47;;;;;;;1.25;0.60;;;19.00;98.00;;;;;;5437566;26;20014;-81
2024/04/15 02:47:12;;;;;;;1.45;1.00;;;18.90;98.10;;;;;;5493890;25;20000;-81
2024/04/15 02:49:38;;;;;;;1.80;1.02;;;18.90;98.20;;;;;;5441566;26;20004;-81
2024/04/15 02:52:04;;;;;;;1.58;0.80;;;18.90;98.20;;;;;;5412478;26;20076;-81
2024/04/15 02:54:29;;;;;;;1.13;0.75;;;18.90;98.10;;;;;;5414730;26;20355;-81
2024/04/15 02:56:55;;;;;;;1.23;0.90;;;18.90;98.30;;;;;;5499387;25;20026;-80
2024/04/15 02:59:20;;;;;;;0.75;0.47;;;18.90;97.80;;;;;;5413164;26;20014;-80
2024/04/15 03:01:46;;;;;;;0.60;0.40;;;18.90;97.90;;;;;;5437161;26;20002;-80
2024/04/15 03:04:12;;;;;;;0.40;0.30;;;18.90;97.80;;;;;;5443207;26;20441;-80
2024/04/15 03:06:37;;;;;;;0.52;0.50;;;18.90;97.80;;;;;;5435281;26;20014;-80
2024/04/15 03:09:03;;;;;;;0.60;0.40;;;18.90;97.80;;;;;;5438833;26;20011;-80
2024/04/15 03:11:28;;;;;;;0.68;0.68;;;18.90;97.70;;;;;;5435981;26;20003;-80
2024/04/15 03:13:54;;;;;;;0.50;0.50;;;18.90;97.80;;;;;;5449640;26;20055;-80
2024/04/15 03:16:19;;;;;;;1.02;0.50;;;18.90;97.80;;;;;;5499362;25;20003;-81
2024/04/15 03:18:48;;;;;;;0.63;0.40;;;18.90;97.80;;;;;;5439112;26;20340;-80
2024/04/15 03:21:13;;;;;;;0.52;0.50;;;18.90;98.00;;;;;;5439914;26;20481;-80
2024/04/15 03:23:39;;;;;;;0.60;0.50;;;18.90;98.00;;;;;;5409514;26;20063;-81
2024/04/15 03:26:04;;;;;;;0.70;0.30;;;18.90;98.10;;;;;;5383072;26;20007;-80
2024/04/15 03:28:30;;;;;;;0.73;0.40;;;18.90;98.00;;;;;;5413025;26;20007;-80
2024/04/15 03:30:56;;;;;;;1.27;0.50;;;18.90;97.90;;;;;;5378394;26;20039;-80
2024/04/15 03:33:22;;;;;;;0.38;0.35;;;18.90;97.90;;;;;;5439665;26;20579;-82
2024/04/15 03:35:47;;;;;;;0.45;0.40;;;18.90;98.00;;;;;;5409211;26;20019;-81
2024/04/15 03:38:13;;;;;;;0.98;0.90;;;18.90;97.80;;;;;;5498166;25;20087;-82
2024/04/15 03:40:38;;;;;;;0.68;0.55;;;18.90;98.00;;;;;;5410505;26;20014;-82
2024/04/15 03:43:04;;;;;;;0.70;0.50;;;18.90;97.80;;;;;;5439992;26;20015;-80
2024/04/15 03:45:29;;;;;;;1.00;0.70;;;18.90;97.90;;;;;;5407481;26;20007;-81
2024/04/15 03:47:55;;;;;;;1.02;0.60;;;18.90;98.00;;;;;;5409240;26;20344;-80
2024/04/15 03:50:23;;;;;;;2.90;1.10;;;18.90;98.00;;;;;;5407275;26;20080;-82
2024/04/15 03:52:49;;;;;;;1.50;0.73;;;18.90;97.80;;;;;;5437187;26;20094;-80
2024/04/15 03:55:15;;;;;;;2.10;0.82;;;18.90;97.70;;;;;;5446953;26;20417;-81
2024/04/15 03:57:40;;;;;;;1.27;0.93;;;19.00;97.80;;;;;;5411207;26;20019;-81
2024/04/15 04:00:06;;;;;;;1.00;0.47;;;18.90;97.80;;;;;;5408202;26;20010;-81
2024/04/15 04:02:32;;;;;;;0.55;0.50;;;18.90;97.70;;;;;;5406990;26;20004;-81
2024/04/15 04:04:57;;;;;;;0.63;0.63;;;18.90;97.70;;;;;;5436746;26;20097;-80
2024/04/15 04:07:23;;;;;;;0.50;0.35;;;18.90;97.80;;;;;;5440687;26;20003;-81
2024/04/15 04:09:49;;;;;;;0.77;0.50;;;18.90;97.80;;;;;;5380705;26;20042;-80
2024/04/15 04:12:14;;;;;;;0.60;0.40;;;18.90;97.90;;;;;;5402041;26;20015;-80
2024/04/15 04:14:40;;;;;;;0.55;0.30;;;18.90;98.00;;;;;;5439868;26;20006;-80
2024/04/15 04:17:05;;;;;;;0.65;0.50;;;18.90;98.00;;;;;;5494103;25;20027;-80
2024/04/15 04:19:32;;;;;;;0.40;0.30;;;18.90;97.90;;;;;;5420851;26;20018;-81
2024/04/15 04:21:57;;;;;;;0.60;0.35;;;18.90;97.80;;;;;;5440419;26;20011;-81
2024/04/15 04:24:23;;;;;;;0.50;0.32;;;18.90;98.00;;;;;;5442601;26;20328;-81
2024/04/15 04:26:49;;;;;;;0.60;0.30;;;18.90;97.60;;;;;;5436869;26;20093;-81
2024/04/15 04:29:14;;;;;;;1.00;0.40;;;18.90;97.10;;;;;;5441724;26;20013;-81
2024/04/15 04:31:40;;;;;;;1.30;0.93;;;18.90;97.20;;;;;;5407456;26;20003;-81
2024/04/15 04:34:05;;;;;;;0.28;0.20;;;18.90;97.20;;;;;;5410440;26;20023;-80
2024/04/15 04:36:31;;;;;;;0.55;0.35;;;18.90;97.20;;;;;;5493243;25;19998;-82
2024/04/15 04:38:56;;;;;;;0.43;0.30;;;18.90;97.60;;;;;;5376589;26;20132;-82
2024/04/15 04:41:23;;;;;;;1.20;0.50;;;18.90;97.60;;;;;;5441166;26;20007;-82
2024/04/15 04:43:49;;;;;;;1.23;0.40;;;18.90;97.80;;;;;;5436390;26;20097;-81
2024/04/15 04:46:14;;;;;;;0.60;0.40;;;19.00;97.70;;;;;;5409827;26;20072;-81
2024/04/15 04:48:40;;;;;;;0.70;0.30;;;19.00;97.70;;;;;;5412297;26;20019;-81
2024/04/15 04:51:09;;;;;;;0.70;0.32;;;19.00;97.60;;;;;;5411953;26;20010;-81
2024/04/15 04:53:35;;;;;;;0.60;0.30;;;19.00;97.80;;;;;;5409690;26;20352;-81
2024/04/15 04:56:10;;;;;;;0.68;0.40;;;19.00;98.00;;;;;;5409311;26;20015;-82
2024/04/15 04:58:37;;;;;;;0.60;0.55;;;19.00;97.80;;;;;;5387686;26;20006;-82
2024/04/15 05:01:15;;;;;;;0.38;0.38;;;19.00;97.70;;;;;;5442141;26;20079;-82
2024/04/15 05:03:48;;;;;;;1.42;0.47;;;19.00;97.80;;;;;;5441444;26;20035;-83
2024/04/15 05:06:14;;;;;;;0.45;0.30;;;19.00;97.50;;;;;;5416782;26;20000;-82
2024/04/15 05:08:40;;;;;;;1.27;0.30;;;19.00;97.40;;;;;;5385150;26;20068;-81
2024/04/15 05:11:05;;;;;;;0.55;0.30;;;19.00;97.60;;;;;;5439626;26;20011;-81
2024/04/15 05:13:31;;;;;;;0.98;0.35;;;19.00;97.60;;;;;;5441775;26;19995;-81
2024/04/15 05:16:04;;;;;;;0.45;0.43;;;19.00;97.50;;;;;;5444451;26;20076;-81
2024/04/15 05:18:29;;;;;;;0.73;0.60;;;19.00;97.80;;;;;;5444124;26;20031;-81
2024/04/15 05:20:55;;;;;;;0.30;0.20;;;19.00;97.80;;;;;;5383219;26;20083;-82
2024/04/15 05:23:21;;;;;;;1.17;0.50;;;19.00;97.60;;;;;;5443506;26;20018;-82
2024/04/15 05:25:46;;;;;;;0.95;0.40;;;19.00;97.50;;;;;;5413490;26;20096;-82
2024/04/15 05:28:12;;;;;;;0.30;0.30;;;19.00;97.40;;;;;;5409584;26;20391;-81
2024/04/15 05:30:38;;;;;;;0.30;0.30;;;19.00;97.40;;;;;;5495416;25;19999;-81
2024/04/15 05:33:03;;;;;;;1.13;0.47;;;19.00;97.60;;;;;;5408881;26;20007;-80
2024/04/15 05:35:29;;;;;;;0.77;0.50;;;19.00;97.60;;;;;;5413552;26;20436;-80
2024/04/15 05:37:55;;;;;;;0.45;0.30;;;19.00;97.50;;;;;;5380390;26;20439;-79
2024/04/15 05:40:20;;;;;;;1.23;0.55;;;19.00;97.40;;;;;;5446997;26;20027;-80
2024/04/15 05:42:46;;;;;;;1.45;0.30;;;19.00;97.50;;;;;;5441821;26;21138;-80
2024/04/15 05:45:11;;;;;;;0.75;0.45;;;19.00;97.40;;;;;;5411580;26;20007;-81
2024/04/15 05:47:37;;;;;;;0.28;0.20;;;19.00;97.40;;;;;;5026924;26;10000024;-81
2024/04/15 05:50:02;;;;;;;0.60;0.47;;;19.00;97.50;;;;;;5436296;26;20095;-81
2024/04/15 05:52:28;;;;;;;0.30;0.30;;;19.00;97.70;;;;;;5468117;26;20039;-81
2024/04/15 05:54:54;;;;;;;0.77;0.38;;;19.00;97.80;;;;;;5411691;26;20109;-81
2024/04/15 05:57:19;;;;;;;2.17;0.30;;;19.00;98.00;;;;;;5400500;26;20009;-80
2024/04/15 05:59:47;;;;;;;0.35;0.30;;;19.00;98.00;;;;;;5409135;26;20031;-82
2024/04/15 06:02:13;;;;;;;0.35;0.30;;;19.00;97.90;;;;;;5438625;26;20460;-81
2024/04/15 06:04:38;;;;;;;1.05;0.60;;;19.00;97.80;;;;;;5433206;26;20007;-81
2024/04/15 06:07:04;;;;;;;0.38;0.30;;;19.00;97.80;;;;;;5406202;26;20104;-83
2024/04/15 06:09:30;;;;;;;0.68;0.30;;;19.00;98.00;;;;;;5429770;26;20337;-82
2024/04/15 06:11:56;;;;;;;2.60;0.43;;;19.00;98.00;;;;;;5434268;26;20003;-82
2024/04/15 06:14:22;;;;;;;0.73;0.55;;;19.10;98.10;;;;;;5466873;26;20010;-83
2024/04/15 06:16:52;;;;;;;0.93;0.50;;;19.10;97.90;;;;;;5403119;26;20029;-82
2024/04/15 06:19:17;;;;;;;2.67;0.43;;;19.10;98.10;;;;;;5436865;26;20018;-82
2024/04/15 06:21:43;;;;;;;0.80;0.40;;;19.10;98.30;;;;;;5460278;26;20003;-84
2024/04/15 06:24:09;;;;;;;1.88;0.40;;;19.10;98.40;;;;;;5410078;26;20083;-81
2024/04/15 06:26:36;;;;;;;2.90;0.30;;;19.00;98.20;;;;;;5439481;26;19999;-82
2024/04/15 06:29:02;;;;;;;0.98;0.68;;;19.10;98.30;;;;;;5437769;26;20004;-83
2024/04/15 06:31:27;;;;;;;2.42;0.32;;;19.00;98.00;;;;;;5385112;26;20010;-82
2024/04/15 06:33:53;;;;;;;1.20;0.40;;;19.00;98.40;;;;;;5440143;26;20003;-81
2024/04/15 06:36:19;;;;;;;1.15;0.50;;;19.00;98.10;;;;;;5470956;26;20006;-82
2024/04/15 06:38:45;;;;;;;1.85;0.20;;;18.90;98.00;;;;;;5440159;26;20014;-81
2024/04/15 06:41:11;;;;;;;1.05;0.30;;;18.90;98.40;;;;;;5436889;26;20003;-81
2024/04/15 06:43:36;;;;;;;0.57;0.40;;;18.90;97.80;;;;;;5444825;26;20010;-82
2024/04/15 06:46:02;;;;;;;0.98;0.40;;;18.90;98.00;;;;;;5436278;26;20533;-80
2024/04/15 06:48:28;;;;;;;1.20;0.40;;;18.90;97.90;;;;;;5430812;26;20026;-80
2024/04/15 06:50:53;;;;;;;0.90;0.40;;;18.90;97.90;;;;;;5413265;26;20007;-81
2024/04/15 06:53:19;;;;;;;1.38;0.50;;;18.90;97.90;;;;;;5443389;26;20400;-81
2024/04/15 06:55:44;;;;;;;1.00;0.43;;;18.90;98.10;;;;;;5380721;26;20007;-80
2024/04/15 06:58:10;;;;;;;0.30;0.20;;;19.00;97.80;;;;;;5442987;26;20003;-80
2024/04/15 07:00:35;;;;;;;0.77;0.35;;;18.90;97.80;;;;;;5444386;26;20018;-81
2024/04/15 07:03:01;;;;;;;0.68;0.32;;;18.90;97.70;;;;;;5434372;26;20464;-80
2024/04/15 07:05:26;;;;;;;1.52;0.32;;;18.90;97.70;;;;;;5443619;26;20011;-81
2024/04/15 07:07:52;;;;;;;0.52;0.52;;;18.90;97.90;;;;;;5380937;26;20007;-81
2024/04/15 07:10:18;;;;;;;0.95;0.40;;;18.90;97.90;;;;;;5385092;26;20007;-80
2024/04/15 07:12:44;;;;;;;0.85;0.40;;;18.90;97.80;;;;;;5451442;26;20075;-81
2024/04/15 07:15:09;;;;;;;0.20;0.20;;;19.00;97.90;;;;;;5433989;26;20015;-80
2024/04/15 07:17:38;;;;;;;0.68;0.20;;;18.90;97.90;;;;;;5441726;26;20384;-81
2024/04/15 07:20:04;;;;;;;0.70;0.40;;;19.00;98.00;;;;;;5442590;26;20003;-80
2024/04/15 07:22:30;;;;;;;0.43;0.38;;;18.90;98.00;;;;;;5419135;26;20006;-81
2024/04/15 07:25:01;;;;;;;2.25;0.50;;;19.00;98.00;;;;;;5419338;26;20101;-81
2024/04/15 07:27:31;;;;;;;0.68;0.28;;;19.00;98.10;;;;;;5442972;26;20005;-80
2024/04/15 07:29:56;;;;;;;0.52;0.20;;;18.90;98.00;;;;;;5436456;26;20007;-80
2024/04/15 07:32:22;;;;;;;2.05;0.40;;;18.90;97.90;;;;;;5410441;26;20030;-81
2024/04/15 07:34:48;;;;;;;1.65;0.20;;;18.90;97.80;;;;;;5438837;26;20461;-81
2024/04/15 07:37:14;;;;;;;0.80;0.30;;;18.90;98.00;;;;;;5442535;26;20003;-80
2024/04/15 07:39:39;;;;;;;0.30;0.20;;;19.00;98.10;;;;;;5441701;26;20003;-81
2024/04/15 07:42:06;;;;;;;1.45;0.20;;;18.90;98.10;;;;;;5498082;25;20093;-80
2024/04/15 07:44:32;;;;;;;0.30;0.20;;;18.90;98.00;;;;;;5410697;26;20103;-81
2024/04/15 07:46:57;;;;;;;0.88;0.50;;;19.00;98.00;;;;;;5419523;26;20414;-81
2024/04/15 07:49:23;;;;;;;0.50;0.30;;;19.00;97.90;;;;;;5444496;26;19991;-81
2024/04/15 07:51:48;;;;;;;0.20;0.20;;;19.00;98.00;;;;;;5470512;26;20007;-81
2024/04/15 07:54:14;;;;;;;1.52;0.20;;;19.00;97.90;;;;;;5439728;26;20487;-81
2024/04/15 07:56:39;;;;;;;0.95;0.30;;;19.00;97.90;;;;;;5443106;26;20007;-81
2024/04/15 07:59:05;;;;;;;0.35;0.30;;;19.00;97.70;;;;;;5409200;26;20014;-82
2024/04/15 08:01:30;;;;;;;0.40;0.40;;;19.00;97.90;;;;;;5413797;26;20010;-81
2024/04/15 08:03:56;;;;;;;1.13;0.30;;;19.00;97.90;;;;;;5439682;26;20114;-81
2024/04/15 08:06:23;;;;;;;0.63;0.25;;;19.00;97.70;;;;;;5410017;26;20068;-81
2024/04/15 08:08:50;;;;;;;2.05;0.40;;;19.00;97.80;;;;;;5441742;26;20021;-81
2024/04/15 08:11:16;;;;;;;0.20;0.20;;;19.00;97.80;;;;;;5441721;26;20061;-81
2024/04/15 08:13:44;;;;;;;1.17;0.40;;;19.00;97.70;;;;;;5382505;26;19998;-81
2024/04/15 08:16:10;;;;;;;0.63;0.43;;;19.00;97.70;;;;;;5443067;26;20009;-81
2024/04/15 08:18:35;;;;;;;1.45;0.30;;;19.00;97.90;;;;;;5444329;26;19999;-81
2024/04/15 08:21:01;;;;;;;0.57;0.30;;;19.10;97.70;;;;;;5407674;26;20068;-81
2024/04/15 08:23:26;;;;;;;0.88;0.40;;;19.10;97.60;;;;;;5435352;26;20000;-81
2024/04/15 08:25:53;;;;;;;0.95;0.30;;;19.10;97.70;;;;;;5466076;26;20016;-81
2024/04/15 08:28:18;;;;;;;0.63;0.30;;;19.10;97.60;;;;;;5442642;26;20013;-81
2024/04/15 08:30:44;;;;;;;0.60;0.20;;;19.20;97.50;;;;;;5435907;26;20333;-81
2024/04/15 08:33:09;;;;;;;0.93;0.20;;;19.20;97.20;;;;;;5409725;26;20039;-81
2024/04/15 08:35:35;;;;;;;0.22;0.20;;;19.20;97.30;;;;;;5436411;26;20488;-81
2024/04/15 08:38:00;;;;;;;0.38;0.15;;;19.20;97.00;;;;;;5437865;26;20015;-81
2024/04/15 08:40:26;;;;;;;0.40;0.28;;;19.20;97.20;;;;;;5439484;26;20011;-81
2024/04/15 08:42:53;;;;;;;0.50;0.30;;;19.30;97.20;;;;;;5409762;26;20328;-81
2024/04/15 08:45:27;;;;;;;0.43;0.40;;;19.30;96.90;;;;;;5435466;26;20354;-81
2024/04/15 08:47:54;;;;;;;0.35;0.22;;;19.30;96.90;;;;;;5412734;26;20030;-81
2024/04/15 08:50:20;;;;;;;0.30;0.30;;;19.40;96.80;;;;;;5409688;26;20456;-81
2024/04/15 08:52:50;;;;;;;0.60;0.20;;;19.40;96.60;;;;;;5443544;26;20003;-81
2024/04/15 08:55:15;;;;;;;0.77;0.63;;;19.40;96.50;;;;;;5473957;26;20003;-81
2024/04/15 08:57:41;;;;;;;0.52;0.20;;;19.40;96.60;;;;;;5410590;26;19995;-81
2024/04/15 09:00:07;;;;;;;0.40;0.20;;;19.40;96.50;;;;;;5441437;26;20079;-80
2024/04/15 09:02:33;;;;;;;0.40;0.40;;;19.40;96.60;;;;;;5408964;26;20009;-82
2024/04/15 09:04:58;;;;;;;0.30;0.20;;;19.40;96.70;;;;;;5468327;26;20014;-81
2024/04/15 09:07:24;;;;;;;0.30;0.20;;;19.40;96.70;;;;;;5440457;26;20007;-81
2024/04/15 09:09:49;;;;;;;0.20;0.20;;;19.40;96.90;;;;;;5412264;26;20362;-81
2024/04/15 09:12:15;;;;;;;0.45;0.30;;;19.30;96.80;;;;;;5410223;26;20003;-81
2024/04/15 09:14:41;;;;;;;0.40;0.30;;;19.40;96.80;;;;;;5494721;25;20072;-81
2024/04/15 09:17:07;;;;;;;0.20;0.20;;;19.30;96.70;;;;;;5436485;26;20345;-81
2024/04/15 09:19:32;;;;;;;0.20;0.20;;;19.30;96.70;;;;;;5439790;26;19999;-82
2024/04/15 09:22:01;;;;;;;0.22;0.20;;;19.30;96.80;;;;;;5442265;26;20006;-81
2024/04/15 09:24:27;;;;;;;0.20;0.20;;;19.30;96.70;;;;;;5438854;26;20016;-81
2024/04/15 09:26:52;;;;;;;0.38;0.20;;;19.30;96.80;;;;;;5410583;26;20043;-81
2024/04/15 09:29:18;;;;;;;0.82;0.30;;;19.30;96.70;;;;;;5440781;26;20003;-81
2024/04/15 09:31:44;;;;;;;0.40;0.20;;;19.30;96.50;;;;;;5438700;26;20014;-81
2024/04/15 09:34:09;;;;;;;0.50;0.20;;;19.30;96.60;;;;;;5436393;26;20007;-81
2024/04/15 09:36:41;;;;;;;0.32;0.25;;;19.40;96.50;;;;;;5383829;26;20010;-81
2024/04/15 09:39:07;;;;;;;0.50;0.30;;;19.40;96.90;;;;;;5411034;26;19999;-81
2024/04/15 09:41:36;;;;;;;0.30;0.20;;;19.30;96.70;;;;;;5435740;26;20313;-81
2024/04/15 09:44:01;;;;;;;0.70;0.38;;;19.40;96.50;;;;;;5408170;26;20075;-81
2024/04/15 09:46:32;;;;;;;0.38;0.20;;;19.40;96.60;;;;;;5443593;26;20014;-81
2024/04/15 09:48:58;;;;;;;0.20;0.10;;;19.30;96.70;;;;;;5440905;26;20004;-81
2024/04/15 09:51:24;;;;;;;0.20;0.13;;;19.30;96.70;;;;;;5384816;26;20022;-81
2024/04/15 09:53:51;;;;;;;0.17;0.10;;;19.30;96.30;;;;;;5445776;26;20368;-81
2024/04/15 09:56:23;;;;;;;0.63;0.22;;;19.40;96.20;;;;;;5439811;26;20003;-81
2024/04/15 09:58:48;;;;;;;0.20;0.13;;;19.40;96.40;;;;;;5442882;26;20388;-81
2024/04/15 10:01:18;;;;;;;0.55;0.20;;;19.30;96.40;;;;;;5445931;26;20013;-81
2024/04/15 10:03:43;;;;;;;0.20;0.20;;;19.30;96.40;;;;;;5413598;26;20036;-81
2024/04/15 10:06:09;;;;;;;0.20;0.10;;;19.40;96.40;;;;;;5415472;26;20554;-81
2024/04/15 10:08:34;;;;;;;0.73;0.20;;;19.30;96.30;;;;;;5383873;26;20077;-81
2024/04/15 10:11:00;;;;;;;0.32;0.20;;;19.40;96.30;;;;;;5471717;26;20069;-81
2024/04/15 10:13:25;;;;;;;0.60;0.10;;;19.40;96.50;;;;;;5444683;26;20017;-81
2024/04/15 10:15:59;;;;;;;0.30;0.10;;;19.40;96.80;;;;;;5383346;26;20079;-81
2024/04/15 10:18:28;;;;;;;0.20;0.10;;;19.50;96.70;;;;;;5442420;26;20002;-82
2024/04/15 10:20:53;;;;;;;0.10;0.10;;;19.50;96.50;;;;;;5440673;26;20007;-81
2024/04/15 10:23:21;;;;;;;0.20;0.10;;;19.60;96.40;;;;;;5414087;26;20694;-81
2024/04/15 10:25:48;;;;;;;0.57;0.25;;;19.60;96.40;;;;;;5413425;26;19995;-80
2024/04/15 10:28:14;;;;;;;0.40;0.20;;;19.60;96.00;;;;;;5435095;26;20452;-81
2024/04/15 10:30:40;;;;;;;0.50;0.30;;;19.60;94.60;;;;;;5413625;26;20009;-82
2024/04/15 10:33:12;;;;;;;1.08;0.20;;;19.70;94.20;;;;;;5413391;26;20537;-81
2024/04/15 10:35:39;;;;;;;0.50;0.32;;;19.60;93.90;;;;;;5410465;26;20003;-81
2024/04/15 10:38:06;;;;;;;0.70;0.25;;;19.70;94.50;;;;;;5440508;26;20506;-82
2024/04/15 10:40:35;;;;;;;3.60;0.45;;;19.70;94.20;;;;;;5441263;26;20032;-81
2024/04/15 10:43:00;;;;;;;0.30;0.30;;;19.70;93.80;;;;;;5441428;26;20002;-81
2024/04/15 10:45:26;;;;;;;0.60;0.30;;;19.80;93.80;;;;;;5413837;26;20353;-81
2024/04/15 10:47:55;;;;;;;0.47;0.40;;;19.70;93.90;;;;;;5407046;26;20007;-81
2024/04/15 10:50:21;;;;;;;0.95;0.40;;;19.70;93.80;;;;;;5382553;26;20004;-80
2024/04/15 10:52:48;;;;;;;1.30;0.80;;;19.70;93.50;;;;;;5441132;26;20478;-80
2024/04/15 10:55:14;;;;;;;2.70;2.50;;;19.60;93.30;;;;;;5452232;26;20003;-78
2024/04/15 10:57:41;;;;;;;3.65;1.17;;;19.70;93.70;;;;;;5384803;26;20360;-80
2024/04/15 11:00:17;;;;;;;2.03;0.90;;;19.70;94.70;;;;;;5444061;26;20023;-80
2024/04/15 11:02:43;;;;;;;2.17;0.60;;;19.70;95.10;;;;;;5470883;26;20011;-82
2024/04/15 11:05:11;;;;;;;0.95;0.50;;;19.70;94.90;;;;;;5433794;26;20684;-81
2024/04/15 11:07:41;;;;;;;0.57;0.52;;;19.70;94.50;;;;;;5438848;26;20055;-79
2024/04/15 11:10:08;;;;;;;0.68;0.57;;;19.70;94.20;;;;;;5445538;26;19999;-80
2024/04/15 11:12:33;;;;;;;2.25;0.60;;;19.60;94.10;;;;;;5382442;26;20011;-79
2024/04/15 11:14:59;;;;;;;1.73;0.30;;;19.70;94.00;;;;;;5441679;26;20879;-80
2024/04/15 11:17:25;;;;;;;1.88;0.50;;;19.70;93.80;;;;;;5408834;26;20004;-81
2024/04/15 11:20:07;;;;;;;0.63;0.40;;;19.70;93.80;;;;;;5405435;26;22103;-80
2024/04/15 11:22:33;;;;;;;1.20;0.30;;;19.70;93.80;;;;;;5034290;26;10001163;-81
2024/04/15 11:24:59;;;;;;;1.05;0.30;;;19.80;93.90;;;;;;5439812;26;20002;-81
2024/04/15 11:27:27;;;;;;;0.45;0.30;;;19.80;93.50;;;;;;5441565;26;20021;-80
2024/04/15 11:29:52;;;;;;;1.05;0.30;;;19.80;93.40;;;;;;5406211;26;20086;-80
2024/04/15 11:32:18;;;;;;;1.55;0.40;;;19.80;93.40;;;;;;5405930;26;19999;-80
2024/04/15 11:34:43;;;;;;;1.13;0.40;;;19.80;93.30;;;;;;5375726;26;19998;-80
2024/04/15 11:37:09;;;;;;;0.47;0.22;;;19.80;93.10;;;;;;5408559;26;20022;-79
2024/04/15 11:39:35;;;;;;;0.35;0.22;;;19.90;93.60;;;;;;5376872;26;20036;-80
2024/04/15 11:42:01;;;;;;;0.55;0.35;;;19.80;93.20;;;;;;5407443;26;20017;-79
2024/04/15 11:44:27;;;;;;;0.55;0.22;;;19.80;93.20;;;;;;5434720;26;20499;-80
2024/04/15 11:46:56;;;;;;;0.45;0.25;;;19.80;93.00;;;;;;5408792;26;20014;-81
2024/04/15 11:49:21;;;;;;;1.13;0.30;;;19.80;93.10;;;;;;5438766;26;20003;-80
2024/04/15 11:51:47;;;;;;;0.35;0.28;;;19.80;93.00;;;;;;5404838;26;20043;-80
2024/04/15 11:54:13;;;;;;;1.05;0.10;;;19.80;93.10;;;;;;5461481;26;20019;-80
2024/04/15 11:56:39;;;;;;;0.43;0.10;;;19.80;93.10;;;;;;5404776;26;20014;-80
2024/04/15 11:59:04;;;;;;;0.50;0.10;;;19.80;93.10;;;;;;5460665;26;20372;-79
2024/04/15 12:01:30;;;;;;;0.45;0.20;;;19.80;93.30;;;;;;5404551;26;20007;-79
2024/04/15 12:03:56;;;;;;;0.50;0.28;;;19.90;93.00;;;;;;5410619;26;20018;-79
2024/04/15 12:06:22;;;;;;;0.45;0.20;;;19.80;93.00;;;;;;5384248;26;20007;-79
2024/04/15 12:08:47;;;;;;;0.32;0.20;;;19.90;92.90;;;;;;5414384;26;20060;-79
2024/04/15 12:11:13;;;;;;;0.30;0.30;;;19.80;93.10;;;;;;5437010;26;20529;-80
2024/04/15 12:13:39;;;;;;;0.82;0.30;;;19.80;93.00;;;;;;5435084;26;20380;-79
2024/04/15 12:16:05;;;;;;;0.98;0.10;;;19.90;92.80;;;;;;5440149;26;20018;-80
2024/04/15 12:18:31;;;;;;;1.27;0.22;;;19.90;92.90;;;;;;5442990;26;20067;-80
2024/04/15 12:20:57;;;;;;;1.27;0.28;;;19.90;92.90;;;;;;5436996;26;20007;-80
2024/04/15 12:23:22;;;;;;;0.80;0.22;;;19.80;92.90;;;;;;5380915;26;20522;-80
2024/04/15 12:25:48;;;;;;;0.20;0.20;;;19.90;92.80;;;;;;5410988;26;20006;-80
2024/04/15 12:28:13;;;;;;;0.65;0.20;;;20.00;92.90;;;;;;5441802;26;20035;-80
2024/04/15 12:30:39;;;;;;;0.25;0.20;;;20.00;92.80;;;;;;5411519;26;20530;-81
2024/04/15 12:33:05;;;;;;;0.95;0.20;;;20.00;92.80;;;;;;5434774;26;20459;-81
2024/04/15 12:35:30;;;;;;;1.55;0.20;;;20.00;92.80;;;;;;5408650;26;19999;-81
2024/04/15 12:37:56;;;;;;;0.63;0.20;;;20.00;92.70;;;;;;5491667;26;20016;-81
2024/04/15 12:40:21;;;;;;;0.30;0.22;;;20.10;92.70;;;;;;5407536;26;20047;-81